Hitachimaru — JD2063 — position and weather

sailwx.info

Track history (hours):
 
Tides and Currents Weather Stations Pressure Air Temp Water Temp Dewpoint Dewpoint Depression Visibility Wind Speed Wind Dir Waves Ship Positions

Hitachimaru

Last reported at 2014-Nov-26 18:33 UTC. Time now 2014-Nov-26 18:42 UTC.
Position N 35°23' E 139°38'.

Length 83 m; draft 4.5 m.

Type: Cargo ship. MMSI: 431301756.

Date/timePositionNaut miles runAvg speedWind from/ knotsBaromVisibWave heightAir tempDewpointWater temp
2014-Nov-26 18:33N 35°23' E 139°38'0 0.0
2014-Nov-26 17:32N 35°23' E 139°38'0 0.0
2014-Nov-26 16:29N 35°23' E 139°38'0 0.0
2014-Nov-26 15:32N 35°23' E 139°38'0 0.0
2014-Nov-26 14:32N 35°23' E 139°38'0 0.0
2014-Nov-26 13:32N 35°23' E 139°38'0 0.0
2014-Nov-26 12:32N 35°23' E 139°38'0 0.0
2014-Nov-26 11:32N 35°23' E 139°38'0 0.0
2014-Nov-26 10:32N 35°23' E 139°38'0 0.0
2014-Nov-26 09:32N 35°23' E 139°38'0 0.0
2014-Nov-26 08:32N 35°23' E 139°38'0 0.0
2014-Nov-26 07:32N 35°23' E 139°38'0 0.0
2014-Nov-26 06:32N 35°23' E 139°38'0 0.0
2014-Nov-26 05:32N 35°23' E 139°38'0 0.0
2014-Nov-26 04:32N 35°23' E 139°38'0 0.0
2014-Nov-26 03:32N 35°23' E 139°38'0 0.0
2014-Nov-26 02:32N 35°23' E 139°38'0 0.0
2014-Nov-26 01:32N 35°23' E 139°38'0 0.0
2014-Nov-26 00:32N 35°23' E 139°38'0 0.0
2014-Nov-25 23:32N 35°23' E 139°38'0 0.0
2014-Nov-25 22:32N 35°23' E 139°38'0 0.0
2014-Nov-25 21:32N 35°23' E 139°38'0 0.0
2014-Nov-25 20:32N 35°23' E 139°38'0 0.0
2014-Nov-25 19:32N 35°23' E 139°38'0 0.0
2014-Nov-25 18:32N 35°23' E 139°38'0 0.0
2014-Nov-25 17:32N 35°23' E 139°38'0 0.0
2014-Nov-25 16:32N 35°23' E 139°38'0 0.0
2014-Nov-25 15:32N 35°23' E 139°38'0 0.0
2014-Nov-25 14:32N 35°23' E 139°38'0 0.0
2014-Nov-25 13:32N 35°23' E 139°38'0 0.0
2014-Nov-25 12:32N 35°23' E 139°38'0 0.0
2014-Nov-25 11:29N 35°23' E 139°38'0 0.0
2014-Nov-25 10:32N 35°23' E 139°38'0 0.0
2014-Nov-25 09:32N 35°23' E 139°38'0 0.0
2014-Nov-25 08:32N 35°23' E 139°38'0 0.0
2014-Nov-25 07:32N 35°23' E 139°38'0 0.0
2014-Nov-25 06:31N 35°23' E 139°38'0 0.0
2014-Nov-25 05:33N 35°23' E 139°38'1 1.0
2014-Nov-25 04:33N 35°23' E 139°40'0 0.0
2014-Nov-25 03:33N 35°23' E 139°40'0 0.0
2014-Nov-25 02:33N 35°23' E 139°40'0 0.0
2014-Nov-25 01:33N 35°23' E 139°40'1 1.1
2014-Nov-25 00:33N 35°23' E 139°38'0 0.0
2014-Nov-24 23:31N 35°23' E 139°38'0 0.0
2014-Nov-24 22:31N 35°23' E 139°38'0 0.1
2014-Nov-24 21:31N 35°23' E 139°38'1 1.3
2014-Nov-24 20:33N 35°23' E 139°40'0 0.0
2014-Nov-24 19:33N 35°23' E 139°40'0 0.1
2014-Nov-24 18:33N 35°23' E 139°40'0 0.0
2014-Nov-24 17:33N 35°23' E 139°40'0 0.0
2014-Nov-24 16:33N 35°23' E 139°40'0 0.0
2014-Nov-24 15:33N 35°23' E 139°40'0 0.0
2014-Nov-24 14:33N 35°23' E 139°40'0 0.0
2014-Nov-24 13:33N 35°23' E 139°40'6 5.6
2014-Nov-24 12:33N 35°19' E 139°44'247 9.8
2014-Nov-23 11:16N 33°58' E 135°00'911.9
2014-Nov-23 10:29N 34°07' E 134°59'1111.8
2014-Nov-23 09:32N 34°18' E 134°59'1211.7
2014-Nov-23 08:33N 34°27' E 135°08'1212.1
2014-Nov-23 07:33N 34°35' E 135°19'6 5.8
2014-Nov-23 06:28N 34°34' E 135°27'0 0.0
2014-Nov-23 02:26N 34°34' E 135°27'0 0.0
2014-Nov-22 23:20N 34°34' E 135°27'0 0.0
2014-Nov-22 22:14N 34°34' E 135°27'0 0.0
2014-Nov-22 21:26N 34°34' E 135°27'0 0.0
2014-Nov-22 19:26N 34°34' E 135°27'0 0.0
2014-Nov-22 11:33N 34°34' E 135°27'2 1.5
2014-Nov-22 10:31N 34°35' E 135°28'0 0.0
2014-Nov-22 07:24N 34°35' E 135°28'0 0.0
2014-Nov-22 06:12N 34°35' E 135°28'0 0.0
2014-Nov-22 05:30N 34°35' E 135°28'0 0.0
2014-Nov-22 04:30N 34°35' E 135°28'0 0.0
2014-Nov-22 03:30N 34°35' E 135°28'0 0.0
2014-Nov-22 01:30N 34°35' E 135°28'0 0.0
2014-Nov-21 23:07N 34°35' E 135°28'3 5.1
2014-Nov-21 22:33N 34°36' E 135°24'1 1.1
2014-Nov-21 21:32N 34°36' E 135°23'0 0.0
2014-Nov-21 20:32N 34°36' E 135°23'0 0.0
2014-Nov-21 19:32N 34°36' E 135°23'0 0.0
2014-Nov-21 18:32N 34°36' E 135°23'7 7.5
2014-Nov-21 17:33N 34°35' E 135°14'1414.2
2014-Nov-21 16:33N 34°36' E 134°57'1 0.0
2014-Nov-20 08:19N 34°37' E 134°57'810.1
2014-Nov-20 07:33N 34°33' E 135°05'1212.0
2014-Nov-20 06:33N 34°21' E 135°01'1111.0
2014-Nov-20 05:33N 34°10' E 134°60'243 9.3
2014-Nov-19 03:32N 35°18' E 139°43'7 7.5
2014-Nov-19 02:33N 35°25' E 139°47'5 4.9
2014-Nov-19 01:33N 35°22' E 139°51'0 0.0
2014-Nov-19 00:31N 35°22' E 139°51'0 0.0
2014-Nov-18 23:31N 35°22' E 139°51'0 0.0
2014-Nov-18 22:31N 35°22' E 139°51'0 0.0
2014-Nov-18 21:31N 35°22' E 139°51'0 0.0
2014-Nov-18 20:31N 35°22' E 139°51'0 0.0
2014-Nov-18 19:31N 35°22' E 139°51'0 0.0
2014-Nov-18 18:31N 35°22' E 139°51'0 0.0
2014-Nov-18 17:31N 35°21' E 139°51'2 2.1
2014-Nov-18 16:33N 35°23' E 139°49'0 0.0
2014-Nov-18 15:33N 35°23' E 139°49'0 0.0
2014-Nov-18 14:30N 35°23' E 139°49'0 0.0
2014-Nov-18 13:33N 35°23' E 139°49'0 0.0
2014-Nov-18 12:27N 35°23' E 139°49'0 0.0
2014-Nov-18 11:33N 35°23' E 139°49'0 0.0
2014-Nov-18 10:30N 35°23' E 139°49'0 0.0
2014-Nov-18 09:15N 35°23' E 139°49'0 0.0
2014-Nov-18 08:27N 35°23' E 139°49'0 0.0
2014-Nov-18 07:33N 35°23' E 139°49'9 8.5
2014-Nov-18 06:32N 35°31' E 139°53'3 0.1
2014-Nov-17 05:21N 35°33' E 139°55'8 9.5
2014-Nov-17 04:33N 35°27' E 139°49'9 8.7
2014-Nov-17 03:33N 35°23' E 139°40'1 1.2
2014-Nov-17 02:31N 35°23' E 139°38'0 0.0
2014-Nov-17 01:31N 35°23' E 139°38'0 0.1
2014-Nov-17 00:34N 35°23' E 139°38'1 1.0
2014-Nov-16 23:32N 35°23' E 139°40'0 0.0
2014-Nov-16 22:29N 35°23' E 139°40'9 9.3
2014-Nov-16 21:33N 35°17' E 139°46'  
Track history (hours):
 
Tides and Currents Weather Stations Pressure Air Temp Water Temp Dewpoint Dewpoint Depression Visibility Wind Speed Wind Dir Waves Ship Positions

Hitachimaru

Last reported at 2014-Nov-26 18:33 UTC. Time now 2014-Nov-26 18:42 UTC.
Position N 35°23' E 139°38'.

Length 83 m; draft 4.5 m.

Type: Cargo ship. MMSI: 431301756.

Date/timePositionNaut miles runAvg speedWind from/ knotsBaromVisibWave heightAir tempDewpointWater temp
2014-Nov-26 18:33N 35°23' E 139°38'0 0.0
2014-Nov-26 17:32N 35°23' E 139°38'0 0.0
2014-Nov-26 16:29N 35°23' E 139°38'0 0.0
2014-Nov-26 15:32N 35°23' E 139°38'0 0.0
2014-Nov-26 14:32N 35°23' E 139°38'0 0.0
2014-Nov-26 13:32N 35°23' E 139°38'0 0.0
2014-Nov-26 12:32N 35°23' E 139°38'0 0.0
2014-Nov-26 11:32N 35°23' E 139°38'0 0.0
2014-Nov-26 10:32N 35°23' E 139°38'0 0.0
2014-Nov-26 09:32N 35°23' E 139°38'0 0.0
2014-Nov-26 08:32N 35°23' E 139°38'0 0.0
2014-Nov-26 07:32N 35°23' E 139°38'0 0.0
2014-Nov-26 06:32N 35°23' E 139°38'0 0.0
2014-Nov-26 05:32N 35°23' E 139°38'0 0.0
2014-Nov-26 04:32N 35°23' E 139°38'0 0.0
2014-Nov-26 03:32N 35°23' E 139°38'0 0.0
2014-Nov-26 02:32N 35°23' E 139°38'0 0.0
2014-Nov-26 01:32N 35°23' E 139°38'0 0.0
2014-Nov-26 00:32N 35°23' E 139°38'0 0.0
2014-Nov-25 23:32N 35°23' E 139°38'0 0.0
2014-Nov-25 22:32N 35°23' E 139°38'0 0.0
2014-Nov-25 21:32N 35°23' E 139°38'0 0.0
2014-Nov-25 20:32N 35°23' E 139°38'0 0.0
2014-Nov-25 19:32N 35°23' E 139°38'0 0.0
2014-Nov-25 18:32N 35°23' E 139°38'0 0.0
2014-Nov-25 17:32N 35°23' E 139°38'0 0.0
2014-Nov-25 16:32N 35°23' E 139°38'0 0.0
2014-Nov-25 15:32N 35°23' E 139°38'0 0.0
2014-Nov-25 14:32N 35°23' E 139°38'0 0.0
2014-Nov-25 13:32N 35°23' E 139°38'0 0.0
2014-Nov-25 12:32N 35°23' E 139°38'0 0.0
2014-Nov-25 11:29N 35°23' E 139°38'0 0.0
2014-Nov-25 10:32N 35°23' E 139°38'0 0.0
2014-Nov-25 09:32N 35°23' E 139°38'0 0.0
2014-Nov-25 08:32N 35°23' E 139°38'0 0.0
2014-Nov-25 07:32N 35°23' E 139°38'0 0.0
2014-Nov-25 06:31N 35°23' E 139°38'0 0.0
2014-Nov-25 05:33N 35°23' E 139°38'1 1.0
2014-Nov-25 04:33N 35°23' E 139°40'0 0.0
2014-Nov-25 03:33N 35°23' E 139°40'0 0.0
2014-Nov-25 02:33N 35°23' E 139°40'0 0.0
2014-Nov-25 01:33N 35°23' E 139°40'1 1.1
2014-Nov-25 00:33N 35°23' E 139°38'0 0.0
2014-Nov-24 23:31N 35°23' E 139°38'0 0.0
2014-Nov-24 22:31N 35°23' E 139°38'0 0.1
2014-Nov-24 21:31N 35°23' E 139°38'1 1.3
2014-Nov-24 20:33N 35°23' E 139°40'0 0.0
2014-Nov-24 19:33N 35°23' E 139°40'0 0.1
2014-Nov-24 18:33N 35°23' E 139°40'0 0.0
2014-Nov-24 17:33N 35°23' E 139°40'0 0.0
2014-Nov-24 16:33N 35°23' E 139°40'0 0.0
2014-Nov-24 15:33N 35°23' E 139°40'0 0.0
2014-Nov-24 14:33N 35°23' E 139°40'0 0.0
2014-Nov-24 13:33N 35°23' E 139°40'6 5.6
2014-Nov-24 12:33N 35°19' E 139°44'247 9.8
2014-Nov-23 11:16N 33°58' E 135°00'911.9
2014-Nov-23 10:29N 34°07' E 134°59'1111.8
2014-Nov-23 09:32N 34°18' E 134°59'1211.7
2014-Nov-23 08:33N 34°27' E 135°08'1212.1
2014-Nov-23 07:33N 34°35' E 135°19'6 5.8
2014-Nov-23 06:28N 34°34' E 135°27'0 0.0
2014-Nov-23 02:26N 34°34' E 135°27'0 0.0
2014-Nov-22 23:20N 34°34' E 135°27'0 0.0
2014-Nov-22 22:14N 34°34' E 135°27'0 0.0
2014-Nov-22 21:26N 34°34' E 135°27'0 0.0
2014-Nov-22 19:26N 34°34' E 135°27'0 0.0
2014-Nov-22 11:33N 34°34' E 135°27'2 1.5
2014-Nov-22 10:31N 34°35' E 135°28'0 0.0
2014-Nov-22 07:24N 34°35' E 135°28'0 0.0
2014-Nov-22 06:12N 34°35' E 135°28'0 0.0
2014-Nov-22 05:30N 34°35' E 135°28'0 0.0
2014-Nov-22 04:30N 34°35' E 135°28'0 0.0
2014-Nov-22 03:30N 34°35' E 135°28'0 0.0
2014-Nov-22 01:30N 34°35' E 135°28'0 0.0
2014-Nov-21 23:07N 34°35' E 135°28'3 5.1
2014-Nov-21 22:33N 34°36' E 135°24'1 1.1
2014-Nov-21 21:32N 34°36' E 135°23'0 0.0
2014-Nov-21 20:32N 34°36' E 135°23'0 0.0
2014-Nov-21 19:32N 34°36' E 135°23'0 0.0
2014-Nov-21 18:32N 34°36' E 135°23'7 7.5
2014-Nov-21 17:33N 34°35' E 135°14'1414.2
2014-Nov-21 16:33N 34°36' E 134°57'1 0.0
2014-Nov-20 08:19N 34°37' E 134°57'810.1
2014-Nov-20 07:33N 34°33' E 135°05'1212.0
2014-Nov-20 06:33N 34°21' E 135°01'1111.0
2014-Nov-20 05:33N 34°10' E 134°60'243 9.3
2014-Nov-19 03:32N 35°18' E 139°43'7 7.5
2014-Nov-19 02:33N 35°25' E 139°47'5 4.9
2014-Nov-19 01:33N 35°22' E 139°51'0 0.0
2014-Nov-19 00:31N 35°22' E 139°51'0 0.0
2014-Nov-18 23:31N 35°22' E 139°51'0 0.0
2014-Nov-18 22:31N 35°22' E 139°51'0 0.0
2014-Nov-18 21:31N 35°22' E 139°51'0 0.0
2014-Nov-18 20:31N 35°22' E 139°51'0 0.0
2014-Nov-18 19:31N 35°22' E 139°51'0 0.0
2014-Nov-18 18:31N 35°22' E 139°51'0 0.0
2014-Nov-18 17:31N 35°21' E 139°51'2 2.1
2014-Nov-18 16:33N 35°23' E 139°49'0 0.0
2014-Nov-18 15:33N 35°23' E 139°49'0 0.0
2014-Nov-18 14:30N 35°23' E 139°49'0 0.0
2014-Nov-18 13:33N 35°23' E 139°49'0 0.0
2014-Nov-18 12:27N 35°23' E 139°49'0 0.0
2014-Nov-18 11:33N 35°23' E 139°49'0 0.0
2014-Nov-18 10:30N 35°23' E 139°49'0 0.0
2014-Nov-18 09:15N 35°23' E 139°49'0 0.0
2014-Nov-18 08:27N 35°23' E 139°49'0 0.0
2014-Nov-18 07:33N 35°23' E 139°49'9 8.5
2014-Nov-18 06:32N 35°31' E 139°53'3 0.1
2014-Nov-17 05:21N 35°33' E 139°55'8 9.5
2014-Nov-17 04:33N 35°27' E 139°49'9 8.7
2014-Nov-17 03:33N 35°23' E 139°40'1 1.2
2014-Nov-17 02:31N 35°23' E 139°38'0 0.0
2014-Nov-17 01:31N 35°23' E 139°38'0 0.1
2014-Nov-17 00:34N 35°23' E 139°38'1 1.0
2014-Nov-16 23:32N 35°23' E 139°40'0 0.0
2014-Nov-16 22:29N 35°23' E 139°40'9 9.3
2014-Nov-16 21:33N 35°17' E 139°46'  

Dump ship's entire track history